Time;durP1;ratioP1;P1;durP2;ratioP2;P2;SDS_P1;SDS_P2;PMS_P1;PMS_P2;Temp;Humidity;BMP_temperature;BMP_pressure;BME280_temperature;BME280_humidity;BME280_pressure;Samples;Min_cycle;Max_cycle;Signal;HPM_P1;HPM_P2
2022/09/27 00:01:56;;;;;;;4.63;1.70;;;10.20;94.90;;;;;;5003086;28;20668;-69
2022/09/27 00:04:22;;;;;;;3.10;1.30;;;10.30;94.80;;;;;;5004933;28;20182;-69
2022/09/27 00:06:48;;;;;;;2.97;1.60;;;10.30;94.90;;;;;;4998666;28;20219;-71
2022/09/27 00:09:13;;;;;;;1.63;1.30;;;10.30;94.90;;;;;;4990945;28;20193;-69
2022/09/27 00:11:44;;;;;;;1.77;1.33;;;10.30;94.80;;;;;;5006401;28;20320;-69
2022/09/27 00:14:13;;;;;;;3.60;1.37;;;10.30;94.90;;;;;;4994827;28;20657;-69
2022/09/27 00:16:39;;;;;;;1.60;1.33;;;10.30;94.80;;;;;;5001222;28;20491;-70
2022/09/27 00:19:14;;;;;;;1.40;1.37;;;10.30;94.90;;;;;;5006191;28;20465;-70
2022/09/27 00:21:42;;;;;;;3.60;1.30;;;10.30;95.00;;;;;;5006644;28;20923;-71
2022/09/27 00:24:15;;;;;;;2.60;1.50;;;10.30;95.10;;;;;;5006956;28;20424;-70
2022/09/27 00:26:42;;;;;;;2.00;1.40;;;10.30;95.20;;;;;;4986524;28;20472;-70
2022/09/27 00:29:09;;;;;;;3.50;1.40;;;10.30;95.30;;;;;;5007331;28;20421;-71
2022/09/27 00:31:36;;;;;;;2.60;1.60;;;10.30;95.30;;;;;;4987959;28;20478;-71
2022/09/27 00:34:04;;;;;;;2.30;1.20;;;10.30;95.40;;;;;;5005954;28;20429;-71
2022/09/27 00:36:30;;;;;;;1.40;1.20;;;10.30;95.40;;;;;;5006912;28;20490;-72
2022/09/27 00:39:00;;;;;;;1.73;1.20;;;10.30;95.50;;;;;;5004814;28;20457;-72
2022/09/27 00:41:32;;;;;;;5.77;1.50;;;10.30;95.40;;;;;;4991752;28;21001;-72
2022/09/27 00:44:03;;;;;;;1.50;1.10;;;10.30;95.40;;;;;;4990764;28;20490;-72
2022/09/27 00:46:46;;;;;;;1.47;1.10;;;10.30;95.40;;;;;;4991370;28;20547;-71
2022/09/27 00:49:17;;;;;;;1.93;1.37;;;10.30;95.30;;;;;;5008056;28;20424;-71
2022/09/27 00:51:46;;;;;;;1.70;1.40;;;10.40;95.20;;;;;;4989686;28;20471;-70
2022/09/27 00:54:16;;;;;;;2.00;1.30;;;10.40;94.90;;;;;;5004314;28;20432;-72
2022/09/27 00:56:43;;;;;;;5.13;1.33;;;10.40;94.90;;;;;;5003023;28;20546;-71
2022/09/27 00:59:15;;;;;;;1.63;1.20;;;10.40;94.90;;;;;;5011003;28;20424;-70
2022/09/27 01:01:42;;;;;;;1.20;1.00;;;10.40;94.90;;;;;;4993746;28;20520;-70
2022/09/27 01:04:17;;;;;;;1.80;1.30;;;10.40;94.90;;;;;;5000691;28;20422;-71
2022/09/27 01:06:43;;;;;;;1.90;1.30;;;10.50;95.00;;;;;;5002778;28;20468;-71
2022/09/27 01:09:10;;;;;;;2.17;1.20;;;10.50;94.70;;;;;;5007896;28;20437;-71
2022/09/27 01:12:17;;;;;;;2.83;1.23;;;10.60;94.70;;;;;;5005684;28;20420;-70
2022/09/27 01:15:00;;;;;;;1.43;1.20;;;10.60;94.80;;;;;;4951604;29;20431;-70
2022/09/27 01:17:51;;;;;;;1.20;1.20;;;10.60;94.70;;;;;;5002264;28;20913;-70
2022/09/27 01:20:25;;;;;;;3.00;1.10;;;10.60;94.70;;;;;;5005222;28;20434;-70
2022/09/27 01:23:10;;;;;;;2.70;1.20;;;10.70;94.40;;;;;;5012346;28;20907;-70
2022/09/27 01:25:46;;;;;;;1.37;1.10;;;10.70;94.20;;;;;;5007978;28;20427;-71
2022/09/27 01:28:26;;;;;;;1.53;1.13;;;10.70;94.20;;;;;;5003496;28;20464;-71
2022/09/27 01:31:00;;;;;;;1.50;1.20;;;10.70;94.30;;;;;;5004219;28;20907;-70
2022/09/27 01:33:32;;;;;;;1.97;1.17;;;10.70;94.40;;;;;;5007280;28;20425;-70
2022/09/27 01:36:22;;;;;;;1.30;1.20;;;10.70;94.20;;;;;;5005105;28;20531;-71
2022/09/27 01:39:22;;;;;;;2.43;1.30;;;10.80;94.10;;;;;;5006467;28;20413;-70
2022/09/27 01:42:11;;;;;;;1.40;1.10;;;10.80;94.10;;;;;;4989500;28;21037;-70
2022/09/27 01:44:50;;;;;;;3.00;1.10;;;10.80;94.20;;;;;;5010408;28;20431;-70
2022/09/27 01:47:27;;;;;;;2.20;1.30;;;10.80;94.10;;;;;;4983810;28;20485;-70
2022/09/27 01:50:05;;;;;;;1.60;1.10;;;10.80;94.10;;;;;;5005425;28;20470;-70
2022/09/27 01:52:50;;;;;;;2.17;1.20;;;10.80;94.20;;;;;;5008721;28;20480;-70
2022/09/27 01:55:20;;;;;;;4.60;1.50;;;10.80;94.40;;;;;;5007402;28;20940;-70
2022/09/27 01:57:52;;;;;;;1.40;1.13;;;10.80;94.40;;;;;;5009973;28;20462;-68
2022/09/27 02:00:17;;;;;;;2.67;1.40;;;10.80;94.30;;;;;;5011713;28;20416;-69
2022/09/27 02:02:56;;;;;;;1.23;1.00;;;10.80;94.50;;;;;;5007139;28;20855;-69
2022/09/27 02:05:28;;;;;;;1.40;1.10;;;10.90;94.50;;;;;;5003723;28;20174;-70
2022/09/27 02:08:03;;;;;;;1.40;1.10;;;10.90;94.50;;;;;;5005566;28;20470;-70
2022/09/27 02:10:39;;;;;;;1.10;0.90;;;10.90;94.40;;;;;;5004707;28;20425;-70
2022/09/27 02:13:14;;;;;;;1.30;1.00;;;11.00;94.40;;;;;;5009823;28;20409;-70
2022/09/27 02:15:48;;;;;;;1.17;0.93;;;11.00;94.30;;;;;;5009817;28;20463;-71
2022/09/27 02:18:21;;;;;;;2.03;1.27;;;11.10;94.20;;;;;;5008938;28;20498;-70
2022/09/27 02:20:58;;;;;;;4.00;1.17;;;11.00;94.50;;;;;;5003983;28;20449;-70
2022/09/27 02:23:42;;;;;;;1.27;1.00;;;11.00;94.80;;;;;;5013423;28;21197;-70
2022/09/27 02:26:31;;;;;;;2.20;1.47;;;10.90;95.20;;;;;;5004786;28;20425;-71
2022/09/27 02:29:06;;;;;;;2.93;1.40;;;10.80;95.60;;;;;;5006269;28;20475;-70
2022/09/27 02:31:32;;;;;;;2.07;1.00;;;10.80;96.10;;;;;;5012597;28;20463;-70
2022/09/27 02:34:10;;;;;;;1.83;0.93;;;10.60;96.30;;;;;;4996451;28;20453;-71
2022/09/27 02:36:36;;;;;;;1.30;0.90;;;10.50;96.20;;;;;;4991528;28;20591;-71
2022/09/27 02:39:02;;;;;;;1.47;1.20;;;10.40;94.90;;;;;;5002454;28;20424;-69
2022/09/27 02:41:28;;;;;;;1.10;0.90;;;10.30;95.20;;;;;;5002602;28;20437;-71
2022/09/27 02:44:01;;;;;;;1.63;1.20;;;10.20;94.80;;;;;;5013141;28;20190;-71
2022/09/27 02:46:50;;;;;;;2.83;1.00;;;10.20;95.10;;;;;;4992961;28;20245;-70
2022/09/27 02:49:19;;;;;;;2.00;1.17;;;10.10;94.60;;;;;;5004965;28;20577;-69
2022/09/27 02:51:59;;;;;;;1.30;0.93;;;10.00;94.20;;;;;;5010368;28;20920;-71
2022/09/27 02:54:50;;;;;;;1.00;0.87;;;10.00;94.30;;;;;;4990566;28;21020;-73
2022/09/27 02:57:37;;;;;;;1.63;0.80;;;9.90;94.40;;;;;;5000142;28;20987;-71
2022/09/27 03:00:21;;;;;;;2.27;1.20;;;9.90;94.30;;;;;;5003740;28;20421;-71
2022/09/27 03:02:59;;;;;;;1.23;0.90;;;9.90;94.40;;;;;;5007830;28;20934;-70
2022/09/27 03:05:56;;;;;;;1.00;0.80;;;9.90;94.50;;;;;;5007255;28;20433;-71
2022/09/27 03:08:22;;;;;;;1.77;1.00;;;9.80;93.90;;;;;;4929369;29;21006;-71
2022/09/27 03:10:47;;;;;;;2.90;1.10;;;9.90;94.00;;;;;;4930959;29;20416;-69
2022/09/27 03:13:13;;;;;;;1.93;1.10;;;9.90;94.20;;;;;;4931325;29;20304;-70
2022/09/27 03:15:39;;;;;;;3.40;0.93;;;9.90;94.10;;;;;;4930141;29;20264;-72
2022/09/27 03:18:04;;;;;;;1.67;1.00;;;9.90;94.10;;;;;;4929164;29;20702;-72
2022/09/27 03:20:30;;;;;;;1.23;0.87;;;9.90;94.00;;;;;;4933334;29;20205;-71
2022/09/27 03:22:56;;;;;;;1.40;0.90;;;9.90;94.00;;;;;;4930905;29;20548;-72
2022/09/27 03:25:21;;;;;;;3.13;1.00;;;9.90;93.90;;;;;;4930397;29;20201;-71
2022/09/27 03:27:47;;;;;;;2.23;0.93;;;9.90;93.90;;;;;;4935193;29;20212;-70
2022/09/27 03:30:14;;;;;;;1.10;1.07;;;10.00;93.60;;;;;;4930732;29;20333;-74
2022/09/27 03:32:44;;;;;;;1.57;1.00;;;10.00;93.50;;;;;;4930811;29;20568;-70
2022/09/27 03:35:11;;;;;;;4.80;1.00;;;10.00;93.60;;;;;;4911423;29;20417;-70
2022/09/27 03:37:37;;;;;;;2.10;1.20;;;9.90;93.60;;;;;;4929120;29;20725;-71
2022/09/27 03:40:03;;;;;;;2.83;1.00;;;9.90;93.70;;;;;;4930838;29;20448;-70
2022/09/27 03:42:29;;;;;;;3.03;1.20;;;9.90;93.80;;;;;;4913143;29;20593;-70
2022/09/27 03:44:55;;;;;;;1.63;0.87;;;9.90;93.80;;;;;;4966947;28;20540;-70
2022/09/27 03:47:21;;;;;;;1.10;1.00;;;9.90;93.60;;;;;;4996408;28;20574;-69
2022/09/27 03:49:47;;;;;;;5.00;1.50;;;9.90;93.60;;;;;;5006157;28;20178;-71
2022/09/27 03:52:13;;;;;;;1.63;1.00;;;9.80;93.90;;;;;;4989156;28;20429;-70
2022/09/27 03:54:39;;;;;;;2.67;1.30;;;9.80;93.80;;;;;;5006117;28;20511;-70
2022/09/27 03:57:04;;;;;;;3.20;1.33;;;9.80;94.00;;;;;;5001409;28;20288;-69
2022/09/27 03:59:30;;;;;;;5.03;1.30;;;9.80;94.00;;;;;;5007308;28;20182;-71
2022/09/27 04:01:56;;;;;;;2.00;1.20;;;9.80;94.10;;;;;;5001654;28;20197;-72
2022/09/27 04:04:21;;;;;;;2.10;1.37;;;9.80;94.30;;;;;;5005506;28;20238;-70
2022/09/27 04:06:48;;;;;;;3.50;1.50;;;9.80;94.30;;;;;;5000853;28;20624;-71
2022/09/27 04:09:13;;;;;;;2.73;1.70;;;9.90;94.40;;;;;;5006204;28;20186;-70
2022/09/27 04:11:39;;;;;;;5.80;2.00;;;9.90;94.40;;;;;;5003468;28;20553;-70
2022/09/27 04:14:04;;;;;;;6.23;1.67;;;9.90;94.40;;;;;;4998697;28;20190;-70
2022/09/27 04:16:31;;;;;;;3.13;1.80;;;9.90;94.40;;;;;;4981070;28;20597;-69
2022/09/27 04:18:57;;;;;;;1.90;1.60;;;10.00;94.00;;;;;;5002189;28;20742;-69
2022/09/27 04:21:23;;;;;;;7.13;2.20;;;10.00;94.10;;;;;;5008740;28;20476;-69
2022/09/27 04:23:49;;;;;;;3.80;1.60;;;10.00;94.10;;;;;;5004309;28;20559;-70
2022/09/27 04:26:15;;;;;;;4.20;1.90;;;10.00;94.10;;;;;;5006369;28;20511;-71
2022/09/27 04:28:40;;;;;;;5.97;1.77;;;10.10;94.00;;;;;;5007752;28;20205;-70
2022/09/27 04:31:06;;;;;;;3.10;2.00;;;10.10;93.80;;;;;;5005102;28;20426;-71
2022/09/27 04:33:32;;;;;;;2.33;1.70;;;10.10;93.80;;;;;;5006243;28;20352;-70
2022/09/27 04:38:41;;;;;;;4.50;2.50;;;10.10;93.90;;;;;;5005993;28;20240;-70
2022/09/27 04:41:07;;;;;;;9.83;2.30;;;10.10;94.00;;;;;;5006342;28;20429;-71
2022/09/27 04:43:33;;;;;;;5.67;2.40;;;10.10;94.10;;;;;;5007595;28;20243;-70
2022/09/27 04:45:59;;;;;;;7.20;2.20;;;10.10;94.20;;;;;;5007104;28;20585;-71
2022/09/27 04:48:25;;;;;;;5.37;2.20;;;10.10;94.00;;;;;;5002203;28;20437;-69
2022/09/27 04:51:03;;;;;;;7.57;2.50;;;10.10;93.80;;;;;;5005781;28;20182;-71
2022/09/27 04:53:29;;;;;;;4.10;2.50;;;10.10;93.70;;;;;;4983718;28;20418;-72
2022/09/27 04:55:55;;;;;;;8.50;2.10;;;10.10;93.70;;;;;;5008165;28;20468;-72
2022/09/27 04:58:24;;;;;;;8.90;2.30;;;10.20;93.80;;;;;;5000071;28;21058;-71
2022/09/27 05:00:54;;;;;;;4.13;2.07;;;10.30;93.70;;;;;;5008817;28;20896;-74
2022/09/27 05:03:21;;;;;;;5.23;2.40;;;10.20;93.40;;;;;;4999322;28;20504;-73
2022/09/27 05:05:46;;;;;;;7.77;3.03;;;10.20;93.60;;;;;;4997034;28;20421;-72
2022/09/27 05:08:12;;;;;;;4.60;2.23;;;10.30;93.80;;;;;;4991020;28;21042;-73
2022/09/27 05:10:38;;;;;;;5.63;2.53;;;10.30;93.50;;;;;;5006148;28;20174;-71
2022/09/27 05:13:04;;;;;;;4.50;2.30;;;10.30;93.60;;;;;;5013179;28;20429;-72
2022/09/27 05:15:29;;;;;;;3.67;2.17;;;10.30;93.90;;;;;;5009047;28;20192;-70
2022/09/27 05:17:57;;;;;;;3.83;2.60;;;10.30;94.20;;;;;;5006693;28;20210;-71
2022/09/27 05:20:24;;;;;;;9.40;2.80;;;10.30;94.30;;;;;;5010106;28;20197;-70
2022/09/27 05:22:50;;;;;;;4.50;2.70;;;10.20;94.60;;;;;;5004969;28;20416;-70
2022/09/27 05:25:16;;;;;;;6.50;2.83;;;10.20;94.90;;;;;;5009147;28;20916;-71
2022/09/27 05:27:42;;;;;;;4.83;2.20;;;10.20;95.00;;;;;;5008780;28;20459;-71
2022/09/27 05:30:08;;;;;;;6.90;2.63;;;10.10;95.20;;;;;;5007131;28;20810;-71
2022/09/27 05:32:34;;;;;;;5.97;2.40;;;10.10;95.10;;;;;;5010217;28;20310;-70
2022/09/27 05:35:00;;;;;;;10.13;4.43;;;10.10;95.20;;;;;;5006066;28;20449;-71
2022/09/27 05:37:25;;;;;;;6.43;2.53;;;10.10;95.20;;;;;;5001553;28;20480;-70
2022/09/27 05:39:51;;;;;;;5.47;2.50;;;10.10;95.20;;;;;;5008390;28;20186;-70
2022/09/27 05:42:18;;;;;;;4.47;2.33;;;10.10;95.10;;;;;;5010912;28;20566;-71
2022/09/27 05:44:47;;;;;;;4.90;2.40;;;10.10;95.10;;;;;;5008374;28;20603;-70
2022/09/27 05:47:14;;;;;;;5.33;2.60;;;10.10;94.80;;;;;;5008423;28;20452;-71
2022/09/27 05:49:40;;;;;;;3.93;2.27;;;10.10;94.90;;;;;;5003565;28;20425;-71
2022/09/27 05:52:06;;;;;;;4.90;2.27;;;10.00;94.30;;;;;;5004264;28;20461;-71
2022/09/27 05:54:32;;;;;;;4.47;2.40;;;10.00;94.20;;;;;;5010961;28;20483;-69
2022/09/27 05:56:59;;;;;;;3.20;2.40;;;10.00;94.70;;;;;;5004971;28;20222;-71
2022/09/27 05:59:25;;;;;;;2.97;2.00;;;10.00;94.90;;;;;;4993187;28;20189;-71
2022/09/27 06:01:51;;;;;;;3.97;2.10;;;10.00;94.10;;;;;;4985602;28;20928;-70
2022/09/27 06:04:17;;;;;;;2.23;1.60;;;10.00;94.00;;;;;;5004915;28;20418;-69
2022/09/27 06:06:43;;;;;;;3.37;2.03;;;10.00;93.90;;;;;;5002039;28;20556;-71
2022/09/27 06:09:10;;;;;;;2.23;1.63;;;10.00;93.90;;;;;;5005547;28;20504;-71
2022/09/27 06:11:36;;;;;;;4.63;1.93;;;10.00;94.30;;;;;;5002897;28;20182;-70
2022/09/27 06:14:02;;;;;;;5.67;2.20;;;10.00;94.60;;;;;;4993322;28;20448;-70
2022/09/27 06:16:27;;;;;;;3.90;2.00;;;10.00;94.80;;;;;;5000629;28;20248;-71
2022/09/27 06:18:53;;;;;;;4.90;2.00;;;10.00;94.80;;;;;;5008074;28;20181;-69
2022/09/27 06:21:19;;;;;;;4.00;2.20;;;10.00;94.70;;;;;;5003817;28;20197;-70
2022/09/27 06:23:45;;;;;;;6.60;2.13;;;10.00;94.60;;;;;;5006450;28;20197;-71
2022/09/27 06:26:11;;;;;;;4.47;2.00;;;10.00;94.80;;;;;;5007653;28;20196;-71
2022/09/27 06:28:37;;;;;;;2.83;2.07;;;10.10;94.80;;;;;;5006700;28;20417;-70
2022/09/27 06:31:06;;;;;;;3.70;2.07;;;10.10;94.30;;;;;;4981885;28;20809;-71
2022/09/27 06:33:33;;;;;;;2.87;1.70;;;10.10;94.30;;;;;;5004373;28;20561;-71
2022/09/27 06:36:06;;;;;;;1.90;1.50;;;10.20;94.20;;;;;;5008388;28;20499;-71
2022/09/27 06:38:32;;;;;;;6.40;1.87;;;10.20;93.70;;;;;;5001007;28;20444;-71
2022/09/27 06:41:01;;;;;;;3.43;1.60;;;10.30;93.20;;;;;;4997024;28;20456;-72
2022/09/27 06:43:28;;;;;;;7.37;1.60;;;10.40;93.00;;;;;;5002350;28;20456;-71
2022/09/27 06:45:53;;;;;;;2.60;1.73;;;10.40;92.80;;;;;;5008791;28;20588;-70
2022/09/27 06:48:19;;;;;;;1.97;1.43;;;10.40;92.60;;;;;;5014717;28;20488;-71
2022/09/27 06:50:47;;;;;;;7.47;2.00;;;10.40;92.40;;;;;;5007705;28;20190;-71
2022/09/27 06:53:15;;;;;;;2.73;1.67;;;10.40;92.60;;;;;;5002143;28;20183;-71
2022/09/27 06:55:41;;;;;;;2.40;1.30;;;10.40;92.30;;;;;;4990711;28;20551;-72
2022/09/27 07:00:54;;;;;;;3.30;1.40;;;10.30;91.90;;;;;;5001792;28;20448;-71
2022/09/27 07:03:30;;;;;;;1.73;1.10;;;10.30;91.10;;;;;;5009498;28;20417;-71
2022/09/27 07:05:58;;;;;;;2.80;1.30;;;10.20;90.70;;;;;;5011916;28;20212;-72
2022/09/27 07:08:25;;;;;;;3.07;1.10;;;10.30;91.20;;;;;;4991397;28;20861;-71
2022/09/27 07:10:51;;;;;;;1.83;1.10;;;10.30;91.10;;;;;;5005415;28;20427;-73
2022/09/27 07:13:18;;;;;;;3.23;1.10;;;10.40;91.30;;;;;;5010210;28;20431;-71
2022/09/27 07:15:44;;;;;;;1.90;1.10;;;10.40;90.80;;;;;;5003597;28;20468;-72
2022/09/27 07:18:09;;;;;;;2.03;1.33;;;10.40;90.80;;;;;;4999803;28;20449;-71
2022/09/27 07:20:37;;;;;;;2.13;1.20;;;10.50;91.20;;;;;;5003875;28;20441;-71
2022/09/27 07:23:05;;;;;;;2.50;1.37;;;10.50;91.50;;;;;;5007119;28;20276;-71
2022/09/27 07:25:32;;;;;;;2.13;1.40;;;10.50;91.40;;;;;;4982532;28;20418;-72
2022/09/27 07:28:06;;;;;;;1.60;1.03;;;10.50;91.30;;;;;;5010944;28;20457;-71
2022/09/27 07:30:32;;;;;;;3.73;1.50;;;10.60;91.60;;;;;;4991303;28;20425;-71
2022/09/27 07:32:59;;;;;;;2.50;1.27;;;10.50;91.40;;;;;;4995611;28;20444;-71
2022/09/27 07:35:26;;;;;;;2.70;0.90;;;10.50;91.60;;;;;;4998679;28;20452;-71
2022/09/27 07:37:51;;;;;;;2.10;1.13;;;10.50;91.80;;;;;;5002855;28;20459;-71
2022/09/27 07:40:18;;;;;;;2.13;1.10;;;10.40;91.00;;;;;;5002199;28;20429;-73
2022/09/27 07:42:44;;;;;;;1.43;1.17;;;10.40;91.00;;;;;;5012964;28;20741;-71
2022/09/27 07:45:10;;;;;;;1.30;1.10;;;10.40;91.50;;;;;;4985141;28;20508;-71
2022/09/27 07:47:38;;;;;;;1.20;0.83;;;10.30;90.20;;;;;;5003084;28;20204;-71
2022/09/27 07:50:05;;;;;;;1.03;0.73;;;10.30;90.20;;;;;;5000560;28;20425;-71
2022/09/27 07:52:39;;;;;;;1.77;1.10;;;10.30;90.10;;;;;;5005799;28;20480;-71
2022/09/27 07:55:05;;;;;;;3.03;1.00;;;10.30;90.30;;;;;;4997870;28;20429;-71
2022/09/27 07:57:30;;;;;;;2.00;1.47;;;10.30;90.50;;;;;;4998644;28;20462;-71
2022/09/27 07:59:56;;;;;;;2.67;1.03;;;10.30;90.20;;;;;;5009756;28;20432;-71
2022/09/27 08:02:23;;;;;;;3.50;1.50;;;10.30;90.40;;;;;;5005240;28;20190;-71
2022/09/27 08:04:48;;;;;;;1.43;0.90;;;10.40;90.10;;;;;;5004787;28;20178;-71
2022/09/27 08:07:14;;;;;;;0.97;0.93;;;10.50;90.10;;;;;;4996377;28;20457;-70
2022/09/27 08:09:40;;;;;;;1.60;1.10;;;10.50;89.20;;;;;;5006009;28;20653;-71
2022/09/27 08:12:06;;;;;;;2.53;1.30;;;10.70;89.50;;;;;;5000525;28;20591;-71
2022/09/27 08:14:31;;;;;;;2.93;1.20;;;10.80;88.90;;;;;;5003235;28;20186;-71
2022/09/27 08:16:57;;;;;;;1.43;1.20;;;10.80;87.40;;;;;;5005883;28;20217;-71
2022/09/27 08:19:24;;;;;;;1.77;1.20;;;10.80;88.10;;;;;;5005199;28;20183;-71
2022/09/27 08:21:53;;;;;;;1.30;1.00;;;10.70;88.40;;;;;;5007591;28;20531;-71
2022/09/27 08:24:19;;;;;;;2.43;1.30;;;10.70;87.80;;;;;;4996918;28;20424;-72
2022/09/27 08:26:45;;;;;;;1.50;1.40;;;10.70;87.70;;;;;;4988868;28;20457;-71
2022/09/27 08:29:11;;;;;;;4.90;2.70;;;10.70;88.00;;;;;;5007628;28;20780;-71
2022/09/27 08:31:37;;;;;;;1.43;1.13;;;10.80;88.00;;;;;;4999675;28;20561;-72
2022/09/27 08:34:03;;;;;;;1.57;1.10;;;10.90;87.80;;;;;;4998191;28;20438;-71
2022/09/27 08:36:30;;;;;;;1.10;1.00;;;10.90;85.60;;;;;;4998335;28;20541;-70
2022/09/27 08:38:56;;;;;;;2.00;1.40;;;11.00;85.60;;;;;;5004895;28;20448;-72
2022/09/27 08:41:53;;;;;;;2.30;1.80;;;11.10;84.30;;;;;;5005191;28;20460;-72
2022/09/27 08:44:28;;;;;;;2.10;1.40;;;11.20;83.70;;;;;;5006273;28;20420;-71
2022/09/27 08:47:06;;;;;;;3.10;1.30;;;11.30;82.80;;;;;;5001143;28;20476;-70
2022/09/27 08:50:23;;;;;;;2.97;1.53;;;11.40;83.60;;;;;;5009710;28;20427;-70
2022/09/27 08:53:00;;;;;;;3.63;1.10;;;11.40;81.50;;;;;;4984866;28;20420;-71
2022/09/27 08:55:32;;;;;;;1.70;1.20;;;11.50;83.10;;;;;;5009231;28;20424;-72
2022/09/27 08:57:58;;;;;;;2.83;1.20;;;11.50;81.90;;;;;;5008375;28;20464;-72
2022/09/27 09:00:26;;;;;;;1.33;1.20;;;11.50;82.50;;;;;;5007690;28;20424;-71
2022/09/27 09:02:52;;;;;;;1.57;1.23;;;11.30;83.10;;;;;;5006806;28;20922;-71
2022/09/27 09:05:30;;;;;;;3.30;1.10;;;11.20;84.60;;;;;;5005408;28;20417;-71
2022/09/27 09:08:22;;;;;;;1.53;1.33;;;11.10;84.60;;;;;;5005166;28;20285;-72
2022/09/27 09:14:15;;;;;;;3.73;1.30;;;11.00;86.20;;;;;;5000907;28;20432;-73
2022/09/27 09:16:56;;;;;;;1.93;1.10;;;11.00;86.00;;;;;;5006389;28;21343;-71
2022/09/27 09:19:21;;;;;;;1.53;1.10;;;11.10;85.60;;;;;;5011620;28;20432;-71
2022/09/27 09:22:06;;;;;;;3.93;1.50;;;10.90;85.50;;;;;;5006833;28;20449;-71
2022/09/27 09:25:08;;;;;;;2.67;1.40;;;11.00;86.60;;;;;;5008739;28;20182;-71
2022/09/27 09:27:52;;;;;;;2.80;1.17;;;11.10;85.30;;;;;;4952871;28;20542;-72
2022/09/27 09:30:18;;;;;;;1.60;1.30;;;11.40;85.20;;;;;;5008137;28;20413;-71
2022/09/27 09:33:21;;;;;;;1.63;1.10;;;11.50;83.70;;;;;;5007337;28;20439;-71
2022/09/27 09:35:58;;;;;;;3.10;1.10;;;11.50;82.20;;;;;;5001802;28;20473;-71
2022/09/27 09:38:48;;;;;;;1.57;1.30;;;11.50;81.90;;;;;;4999432;28;20988;-71
2022/09/27 09:41:19;;;;;;;2.10;1.37;;;11.60;80.00;;;;;;5009799;28;20415;-72
2022/09/27 09:43:54;;;;;;;1.83;1.20;;;11.50;77.60;;;;;;4995928;28;20418;-71
2022/09/27 09:46:26;;;;;;;2.07;1.30;;;11.60;78.30;;;;;;5006297;28;20844;-71
2022/09/27 09:48:59;;;;;;;2.50;1.90;;;11.80;79.00;;;;;;5008704;28;20427;-73
2022/09/27 09:51:36;;;;;;;1.67;1.63;;;12.00;76.50;;;;;;4982508;28;20472;-72
2022/09/27 09:54:14;;;;;;;4.10;1.83;;;12.00;74.30;;;;;;5011549;28;20935;-72
2022/09/27 09:56:46;;;;;;;1.93;1.30;;;12.10;75.70;;;;;;5004110;28;20508;-72
2022/09/27 09:59:22;;;;;;;3.47;1.90;;;12.30;75.50;;;;;;5007149;28;20417;-72
2022/09/27 10:01:48;;;;;;;4.33;1.70;;;12.40;73.90;;;;;;5008410;28;20911;-72
2022/09/27 10:04:31;;;;;;;5.60;1.80;;;12.50;73.50;;;;;;4996094;28;20413;-70
2022/09/27 10:06:58;;;;;;;2.93;1.80;;;12.50;73.50;;;;;;5005934;28;20202;-71
2022/09/27 10:09:26;;;;;;;3.47;1.80;;;12.50;72.40;;;;;;5006226;28;20420;-71
2022/09/27 10:11:52;;;;;;;3.00;1.90;;;12.60;73.70;;;;;;4998541;28;20476;-70
2022/09/27 10:14:20;;;;;;;2.90;1.80;;;12.90;72.00;;;;;;4999117;28;20421;-71
2022/09/27 10:16:49;;;;;;;5.27;2.33;;;12.70;69.90;;;;;;5013450;28;20482;-72
2022/09/27 10:19:25;;;;;;;3.07;1.70;;;12.70;71.10;;;;;;5007037;28;20433;-72
2022/09/27 10:21:52;;;;;;;2.77;1.93;;;12.70;70.70;;;;;;5008547;28;20448;-72
2022/09/27 10:24:18;;;;;;;2.80;1.80;;;12.60;70.50;;;;;;5007783;28;20422;-71
2022/09/27 10:26:46;;;;;;;2.53;1.67;;;12.70;71.00;;;;;;5005393;28;20864;-72
2022/09/27 10:29:23;;;;;;;3.60;1.80;;;12.80;71.30;;;;;;4996969;28;20429;-70
2022/09/27 10:31:50;;;;;;;3.43;1.77;;;12.80;72.00;;;;;;4998477;28;20413;-70
2022/09/27 10:34:25;;;;;;;5.03;1.80;;;12.70;72.30;;;;;;5011228;28;20440;-71
2022/09/27 10:37:07;;;;;;;4.93;2.13;;;12.60;73.00;;;;;;5008156;28;20544;-69
2022/09/27 10:39:34;;;;;;;3.20;1.80;;;12.50;73.60;;;;;;5006839;28;20413;-71
2022/09/27 10:42:00;;;;;;;2.73;2.13;;;12.40;73.90;;;;;;5005905;28;20428;-71
2022/09/27 10:44:31;;;;;;;2.20;1.80;;;12.20;74.60;;;;;;5001769;28;20433;-71
2022/09/27 10:47:08;;;;;;;1.73;1.67;;;12.30;74.60;;;;;;5003945;28;20983;-71
2022/09/27 10:49:39;;;;;;;3.20;1.90;;;12.50;74.20;;;;;;5008437;28;20483;-71
2022/09/27 10:52:13;;;;;;;4.77;1.77;;;12.70;73.20;;;;;;4997323;28;20422;-70
2022/09/27 10:54:40;;;;;;;2.90;1.70;;;12.90;72.10;;;;;;4998781;28;20519;-70
2022/09/27 10:57:20;;;;;;;3.47;2.13;;;13.00;71.30;;;;;;5007342;28;21321;-71
2022/09/27 11:00:04;;;;;;;2.73;1.93;;;13.00;71.40;;;;;;5008076;28;20798;-72
2022/09/27 11:02:36;;;;;;;2.40;2.10;;;13.10;71.40;;;;;;5006044;28;20416;-70
2022/09/27 11:05:11;;;;;;;2.43;2.27;;;13.10;71.40;;;;;;5010464;28;20417;-71
2022/09/27 11:07:48;;;;;;;5.67;1.80;;;13.10;71.80;;;;;;5000695;28;20555;-70
2022/09/27 11:10:22;;;;;;;3.80;1.83;;;13.00;72.00;;;;;;5001122;28;20552;-70
2022/09/27 11:13:05;;;;;;;2.27;1.70;;;12.90;72.30;;;;;;5004344;28;20424;-70
2022/09/27 11:15:53;;;;;;;3.53;1.60;;;13.10;72.30;;;;;;5003610;28;20429;-69
2022/09/27 11:18:30;;;;;;;4.03;1.70;;;13.20;72.00;;;;;;5002418;28;20471;-70
2022/09/27 11:21:17;;;;;;;1.60;1.30;;;13.20;70.70;;;;;;5003140;28;20456;-70
2022/09/27 11:23:55;;;;;;;2.10;1.43;;;13.20;69.80;;;;;;5002418;28;20950;-70
2022/09/27 11:27:04;;;;;;;2.80;1.60;;;13.00;70.10;;;;;;5003990;28;20510;-70
2022/09/27 11:29:46;;;;;;;3.23;1.67;;;12.90;71.00;;;;;;4945640;29;20530;-70
2022/09/27 11:32:52;;;;;;;2.87;1.90;;;12.90;70.20;;;;;;5001649;28;20520;-69
2022/09/27 11:35:25;;;;;;;4.80;1.80;;;12.90;70.80;;;;;;5000691;28;20797;-71
2022/09/27 11:38:06;;;;;;;1.70;1.50;;;13.00;70.70;;;;;;5001971;28;20475;-71
2022/09/27 11:40:59;;;;;;;3.40;1.90;;;13.20;70.40;;;;;;5001515;28;20422;-69
2022/09/27 11:43:49;;;;;;;7.93;1.67;;;13.40;70.10;;;;;;5001435;28;20991;-71
2022/09/27 11:46:33;;;;;;;1.70;1.30;;;13.30;70.40;;;;;;5003260;28;20447;-71
2022/09/27 11:49:13;;;;;;;2.57;1.20;;;13.40;70.50;;;;;;5003956;28;20479;-70
2022/09/27 11:51:46;;;;;;;2.93;1.40;;;13.20;70.50;;;;;;5002555;28;20516;-70
2022/09/27 11:54:24;;;;;;;2.50;1.57;;;13.10;70.70;;;;;;5010554;28;20427;-70
2022/09/27 11:57:01;;;;;;;2.90;1.40;;;13.00;71.80;;;;;;5001019;28;20472;-71
2022/09/27 11:59:45;;;;;;;2.43;1.13;;;12.90;72.10;;;;;;5008758;28;20409;-71
2022/09/27 12:02:38;;;;;;;1.67;1.20;;;13.00;73.00;;;;;;5001744;28;20417;-70
2022/09/27 12:05:14;;;;;;;1.30;1.13;;;13.00;73.50;;;;;;4996462;28;20408;-70
2022/09/27 12:08:08;;;;;;;2.20;1.23;;;12.90;73.20;;;;;;5002722;28;20455;-69
2022/09/27 12:10:37;;;;;;;1.80;1.40;;;12.80;73.60;;;;;;4994793;28;20518;-70
2022/09/27 12:13:03;;;;;;;1.63;0.83;;;12.70;74.80;;;;;;5008867;28;20421;-71
2022/09/27 12:15:33;;;;;;;0.83;0.70;;;12.20;73.50;;;;;;5005984;28;20429;-71
2022/09/27 12:18:21;;;;;;;4.53;0.90;;;11.50;75.40;;;;;;5003209;28;20496;-70
2022/09/27 12:20:48;;;;;;;2.13;1.20;;;10.60;78.40;;;;;;5007278;28;20456;-72
2022/09/27 12:23:25;;;;;;;5.07;1.00;;;10.60;81.90;;;;;;5008515;28;20791;-70
2022/09/27 12:25:57;;;;;;;1.33;0.80;;;10.40;85.00;;;;;;5004219;28;20413;-69
2022/09/27 12:28:58;;;;;;;1.13;1.00;;;10.00;88.30;;;;;;5001921;28;20499;-71
2022/09/27 12:31:45;;;;;;;1.60;1.20;;;9.80;90.10;;;;;;5002413;28;20443;-72
2022/09/27 12:34:16;;;;;;;1.27;0.87;;;9.80;91.10;;;;;;5008377;28;20473;-71
2022/09/27 12:36:57;;;;;;;2.60;1.23;;;10.00;91.80;;;;;;5000254;28;20489;-71
2022/09/27 12:39:32;;;;;;;1.60;1.03;;;10.10;91.50;;;;;;4998303;28;20414;-69
2022/09/27 12:42:04;;;;;;;2.90;1.30;;;10.10;90.90;;;;;;4987988;28;20931;-69
2022/09/27 12:44:38;;;;;;;5.93;1.20;;;10.10;90.20;;;;;;5002793;28;20567;-70
2022/09/27 12:47:21;;;;;;;1.57;1.20;;;10.30;90.80;;;;;;5003586;28;20534;-72
2022/09/27 12:50:00;;;;;;;1.97;1.13;;;10.40;90.20;;;;;;5004260;28;20469;-71
2022/09/27 12:52:32;;;;;;;2.13;1.10;;;10.50;90.00;;;;;;5007777;28;20417;-71
2022/09/27 12:55:25;;;;;;;1.83;0.90;;;10.60;89.30;;;;;;5001194;28;20433;-69
2022/09/27 12:58:16;;;;;;;1.60;1.10;;;10.60;89.70;;;;;;5001728;28;20870;-72
2022/09/27 13:00:50;;;;;;;2.03;1.10;;;10.70;88.70;;;;;;5000307;28;20884;-70
2022/09/27 13:03:39;;;;;;;1.20;1.00;;;10.70;89.00;;;;;;4994005;28;20421;-72
2022/09/27 13:06:25;;;;;;;2.20;1.27;;;10.90;88.90;;;;;;5000966;28;20788;-70
2022/09/27 13:09:10;;;;;;;1.47;0.90;;;11.30;88.70;;;;;;5004535;28;20448;-70
2022/09/27 13:11:51;;;;;;;1.47;1.20;;;11.30;87.30;;;;;;5008188;28;20439;-70
2022/09/27 13:14:25;;;;;;;2.37;1.80;;;11.10;89.20;;;;;;5004296;28;20413;-68
2022/09/27 13:16:51;;;;;;;2.40;1.10;;;11.20;89.50;;;;;;5003952;28;20479;-70
2022/09/27 13:19:35;;;;;;;1.83;1.17;;;11.10;88.90;;;;;;5004436;28;21086;-69
2022/09/27 13:22:03;;;;;;;1.43;1.13;;;10.90;90.10;;;;;;5003144;28;20201;-71
2022/09/27 13:24:43;;;;;;;1.70;1.10;;;10.90;90.10;;;;;;5002568;28;20433;-70